Chandler, OK

8:22 PM CDT on April 27, 2015 (GMT -0500)
Chandler Municipal | | Change Station
CLOSE
Current Station
Airport
Location: Chandler,
Elevation: 984 ft
Nearby Weather Stations

Elev 984 ft 35.72 °N, 96.82 °W | Updated 7 minutes ago

Rain
Rain
50 °F
Feels Like 50 °F
N
0
Wind Variable Wind from North

Today
High -- | Low -- °F
--% Chance of Precip.
Yesterday
High -- | Low -- °F
Precip. -- in
6:40 AM 8:10 PM
Waxing Gibbous, 69% visible
Pressure 30.04 in
Visibility 4.0 miles
Clouds Scattered Clouds 2800 ft
Mostly Cloudy 3500 ft
Overcast 4500 ft
Dew Point 50 °F
Humidity 100%
Rainfall 0.00 in
Snow Depth Not available.
UV 0 out of 12
Pollen 1.00 out of 12
Air Quality Not available.
Flu Activity Local Activity
METAR KCQB 280115Z AUTO 00000KT 4SM RA SCT028 BKN035 OVC045 10/10 A3004 RMK AO2

More Conditions Fewer Conditions

Pressure 30.04 in
Visibility 4.0 miles
Clouds Scattered Clouds 2800 ft
Mostly Cloudy 3500 ft
Overcast 4500 ft
Dew Point 50 °F
Humidity 100%
Rainfall 0.00 in
Snow Depth Not available.
UV 0 out of 12
Pollen 1.00 out of 12
Air Quality Not available.
Flu Activity Local Activity
METAR KCQB 280115Z AUTO 00000KT 4SM RA SCT028 BKN035 OVC045 10/10 A3004 RMK AO2

More Conditions Fewer Conditions

10-Day Weather Forecast

Almanac

Astronomy

Apr. 27, 2015 Rise Set
Actual Time
Civil Twilight
Nautical Twilight
Astronomical Twilight
Moon
Length of Visible Light
Length of Day
Tomorrow will be .
, % of the Moon is Illuminated

Today's Extremes

State Highs State Lows

Community

WunderPhotos

Upload Photos

1,817,508 photos uploaded!

WunderBlogs® & News

Nearby

Air Quality

  Air Quality AQ Index Pollutant
Not available.

Snow Depth

Station Depth Elevation

Earthquake Activity

City Distance Mag. Time & Date
Minimum magnitude displayed is 2.5.

Coastal Water Temperatures

Place Temperature

Stations

Nearby Weather Stations

Station Location Temp. Windchill Dew Point Humidity Wind Precip. Elev Updated Type